createdAt,value
2019-04-25T00:01:01.224Z,98036.84
2019-04-25T00:04:16.108Z,98032.29
2019-04-25T00:07:31.258Z,98025.00
2019-04-25T00:10:45.454Z,98031.63
2019-04-25T00:13:58.835Z,98023.98
2019-04-25T00:17:12.490Z,98031.77
2019-04-25T00:20:27.675Z,98029.38
2019-04-25T00:23:43.779Z,98030.81
2019-04-25T00:26:57.254Z,98044.34
2019-04-25T00:30:11.350Z,98043.82
2019-04-25T00:33:25.158Z,98039.63
2019-04-25T00:36:39.113Z,98041.36
2019-04-25T00:39:53.474Z,98042.36
2019-04-25T00:43:07.080Z,98046.18
2019-04-25T00:46:22.448Z,98045.97
2019-04-25T00:49:36.280Z,98041.80
2019-04-25T00:52:51.942Z,98042.16
2019-04-25T00:56:05.419Z,98051.86
2019-04-25T00:59:44.049Z,98055.42
2019-04-25T01:02:58.992Z,98049.81
2019-04-25T01:06:12.765Z,98052.11
2019-04-25T01:09:27.053Z,98056.73
2019-04-25T01:12:41.681Z,98048.56
2019-04-25T01:15:55.408Z,98064.48
2019-04-25T01:19:08.912Z,98068.05
2019-04-25T01:22:23.246Z,98068.18
2019-04-25T01:25:41.103Z,98067.92
2019-04-25T01:28:54.050Z,98073.02
2019-04-25T01:32:10.667Z,98078.62
2019-04-25T01:35:44.859Z,98058.26
2019-04-25T01:39:04.908Z,98068.71
2019-04-25T01:42:37.565Z,98074.05
2019-04-25T01:45:51.791Z,98076.84
2019-04-25T01:49:05.477Z,98069.44
2019-04-25T01:52:18.935Z,98070.22
2019-04-25T01:55:33.579Z,98080.67
2019-04-25T01:58:47.093Z,98080.16
2019-04-25T02:02:00.811Z,98088.30
2019-04-25T02:05:14.811Z,98095.94
2019-04-25T02:08:28.304Z,98100.64
2019-04-25T02:11:59.967Z,98106.13
2019-04-25T02:15:15.546Z,98111.22
2019-04-25T02:18:29.036Z,98104.08
2019-04-25T02:21:43.421Z,98106.39
2019-04-25T02:24:57.225Z,98111.98
2019-04-25T02:28:11.038Z,98107.15
2019-04-25T02:31:24.746Z,98109.69
2019-04-25T02:34:38.878Z,98108.55
2019-04-25T02:37:55.471Z,98116.44
2019-04-25T02:41:09.043Z,98109.19
2019-04-25T02:44:24.744Z,98115.80
2019-04-25T02:47:58.504Z,98118.85
2019-04-25T02:51:35.765Z,98117.58
2019-04-25T02:54:49.227Z,98117.58
2019-04-25T02:58:05.634Z,98121.64
2019-04-25T03:01:22.694Z,98102.94
2019-04-25T03:04:34.483Z,98105.23
2019-04-25T03:07:48.079Z,98114.01
2019-04-25T03:11:04.692Z,98115.03
2019-04-25T03:14:17.104Z,98112.48
2019-04-25T03:17:30.799Z,98123.41
2019-04-25T03:20:54.841Z,98115.42
2019-04-25T03:24:12.883Z,98126.48
2019-04-25T03:27:25.356Z,98119.20
2019-04-25T03:30:38.972Z,98123.27
2019-04-25T03:33:55.518Z,98127.95
2019-04-25T03:37:07.851Z,98133.05
2019-04-25T03:40:21.432Z,98133.69
2019-04-25T03:43:34.881Z,98139.16
2019-04-25T03:46:48.514Z,98135.84
2019-04-25T03:50:04.435Z,98143.77
2019-04-25T03:53:17.709Z,98144.18
2019-04-25T03:56:31.553Z,98145.92
2019-04-25T03:59:46.543Z,98145.16
2019-04-25T04:03:00.101Z,98139.86
2019-04-25T04:06:15.243Z,98152.19
2019-04-25T04:09:29.105Z,98151.08
2019-04-25T04:12:44.221Z,98141.00
2019-04-25T04:15:58.148Z,98158.23
2019-04-25T04:19:11.731Z,98161.96
2019-04-25T04:22:35.558Z,98163.73
2019-04-25T04:25:49.106Z,98170.88
2019-04-25T04:29:03.038Z,98168.84
2019-04-25T04:32:18.369Z,98172.73
2019-04-25T04:35:33.580Z,98177.25
2019-04-25T04:38:47.167Z,98175.98
2019-04-25T04:42:00.778Z,98180.34
2019-04-25T04:45:15.450Z,98187.89
2019-04-25T04:48:29.223Z,98176.05
2019-04-25T04:51:44.313Z,98186.00
2019-04-25T04:55:06.272Z,98190.38
2019-04-25T04:58:15.010Z,98181.47
2019-04-25T05:01:30.648Z,98186.21
2019-04-25T05:04:54.213Z,98184.83
2019-04-25T05:08:14.994Z,98176.44
2019-04-25T05:11:29.422Z,98142.56
2019-04-25T05:16:33.211Z,98106.55
2019-04-25T05:19:46.699Z,98092.05
2019-04-25T05:23:00.178Z,98101.90
2019-04-25T05:26:15.973Z,98120.36
2019-04-25T05:29:29.278Z,98135.81
2019-04-25T05:32:44.210Z,98151.75
2019-04-25T05:35:58.103Z,98158.52
2019-04-25T05:39:11.868Z,98161.59
2019-04-25T05:42:33.194Z,98160.22
2019-04-25T05:45:47.090Z,98159.64
2019-04-25T05:49:00.652Z,98164.92
2019-04-25T05:52:14.120Z,98171.13
2019-04-25T05:55:27.581Z,98173.28
2019-04-25T05:58:41.058Z,98173.77
2019-04-25T06:01:54.532Z,98176.69
2019-04-25T06:05:08.391Z,98184.13
2019-04-25T06:08:25.551Z,98186.30
2019-04-25T06:11:46.152Z,98194.52
2019-04-25T06:14:59.883Z,98195.98
2019-04-25T06:18:21.302Z,98196.52
2019-04-25T06:21:34.759Z,98198.70
2019-04-25T06:24:54.232Z,98197.04
2019-04-25T06:28:10.811Z,98199.66
2019-04-25T06:31:26.834Z,98199.38
2019-04-25T06:34:39.961Z,98201.73
2019-04-25T06:37:53.752Z,98213.73
2019-04-25T06:41:07.406Z,98213.98
2019-04-25T06:44:38.041Z,98221.95
2019-04-25T06:48:06.779Z,98228.82
2019-04-25T06:51:25.549Z,98226.13
2019-04-25T06:54:38.606Z,98222.71
2019-04-25T06:57:53.995Z,98218.59
2019-04-25T07:01:07.774Z,98219.50
2019-04-25T07:04:21.298Z,98221.37
2019-04-25T07:07:35.264Z,98202.83
2019-04-25T07:10:48.844Z,98196.45
2019-04-25T07:14:04.182Z,98191.17
2019-04-25T07:17:17.845Z,98191.81
2019-04-25T07:20:32.677Z,98193.85
2019-04-25T07:23:47.655Z,98195.13
2019-04-25T07:27:25.437Z,98192.78
2019-04-25T07:30:58.987Z,98198.27
2019-04-25T07:34:18.537Z,98191.00
2019-04-25T07:37:34.247Z,98199.89
2019-04-25T07:40:47.387Z,98192.70
2019-04-25T07:44:00.977Z,98198.12
2019-04-25T07:47:15.906Z,98204.55
2019-04-25T07:50:30.224Z,98203.06
2019-04-25T07:53:43.794Z,98207.03
2019-04-25T07:56:57.272Z,98225.52
2019-04-25T08:00:13.428Z,98217.09
2019-04-25T08:03:28.392Z,98208.13
2019-04-25T08:06:42.033Z,98196.95
2019-04-25T08:09:55.510Z,98179.23
2019-04-25T08:13:08.991Z,98189.19
2019-04-25T08:16:24.134Z,98185.81
2019-04-25T08:19:37.924Z,98186.41
2019-04-25T08:22:57.112Z,98176.42
2019-04-25T08:26:07.785Z,98178.78
2019-04-25T08:29:23.691Z,98179.84
2019-04-25T08:32:37.665Z,98166.02
2019-04-25T08:36:04.527Z,98156.91
2019-04-25T08:39:08.480Z,98152.34
2019-04-25T08:42:22.071Z,98157.69
2019-04-25T08:45:37.125Z,98164.28
2019-04-25T08:49:23.978Z,98173.13
2019-04-25T08:52:37.792Z,98176.17
2019-04-25T08:55:59.607Z,98179.27
2019-04-25T08:59:40.055Z,98166.64
2019-04-25T09:02:52.321Z,98157.75
2019-04-25T09:06:05.992Z,98152.98
2019-04-25T09:09:19.677Z,98145.53
2019-04-25T09:12:35.584Z,98138.12
2019-04-25T09:15:48.728Z,98137.89
2019-04-25T09:19:03.060Z,98130.50
2019-04-25T09:22:18.193Z,98123.69
2019-04-25T09:25:33.504Z,98122.75
2019-04-25T09:28:47.392Z,98128.17
2019-04-25T09:32:00.877Z,98136.05
2019-04-25T09:35:14.454Z,98133.95
2019-04-25T09:38:28.287Z,98131.73
2019-04-25T09:41:43.536Z,98127.09
2019-04-25T09:45:09.400Z,98117.83
2019-04-25T09:48:30.755Z,98107.84
2019-04-25T09:51:50.506Z,98097.73
2019-04-25T09:55:24.151Z,98088.05
2019-04-25T09:58:49.627Z,98111.03
2019-04-25T10:02:04.355Z,98098.07
2019-04-25T10:05:17.935Z,98070.69
2019-04-25T10:08:31.530Z,98045.70
2019-04-25T10:11:46.390Z,98067.02
2019-04-25T10:15:43.027Z,98050.64
2019-04-25T10:18:57.611Z,98046.34
2019-04-25T10:22:11.324Z,98040.11
2019-04-25T10:25:25.009Z,98028.19
2019-04-25T10:28:39.772Z,98028.34
2019-04-25T10:31:55.331Z,98012.08
2019-04-25T10:35:08.985Z,98013.55
2019-04-25T10:38:24.816Z,98009.95
2019-04-25T10:41:39.948Z,98009.80
2019-04-25T10:44:56.145Z,98001.71
2019-04-25T10:48:09.335Z,98003.13
2019-04-25T10:51:24.001Z,97987.52
2019-04-25T10:54:37.702Z,97990.25
2019-04-25T10:57:51.268Z,97981.63
2019-04-25T11:01:05.553Z,97978.50
2019-04-25T11:04:25.153Z,97969.64
2019-04-25T11:07:38.616Z,97973.71
2019-04-25T11:10:53.768Z,97973.44
2019-04-25T11:14:08.237Z,97974.66
2019-04-25T11:17:21.803Z,97964.64
2019-04-25T11:20:36.234Z,97976.80
2019-04-25T11:23:50.183Z,97981.97
2019-04-25T11:27:04.301Z,97989.45
2019-04-25T11:30:19.334Z,97984.16
2019-04-25T11:33:34.448Z,97973.89
2019-04-25T11:36:48.483Z,97982.51
2019-04-25T11:40:08.916Z,97977.34
2019-04-25T11:43:23.206Z,97964.41
2019-04-25T11:46:39.373Z,97968.53
2019-04-25T11:49:54.623Z,97963.59
2019-04-25T11:53:09.107Z,97967.01
2019-04-25T11:56:24.109Z,97968.04
2019-04-25T11:59:38.263Z,97978.34
2019-04-25T12:02:52.389Z,97987.40
2019-04-25T12:06:06.592Z,97988.48
2019-04-25T12:09:20.647Z,97958.97
2019-04-25T12:16:33.310Z,97921.77
2019-04-25T12:19:47.140Z,97918.78
2019-04-25T12:23:08.487Z,97918.41
2019-04-25T12:26:16.269Z,97893.31
2019-04-25T12:29:29.996Z,97895.41
2019-04-25T12:32:47.951Z,97889.86
2019-04-25T12:36:02.309Z,97890.16
2019-04-25T12:39:16.064Z,97888.30
2019-04-25T12:42:31.640Z,97879.05
2019-04-25T12:45:51.514Z,97868.66
2019-04-25T12:49:05.233Z,97873.02
2019-04-25T12:52:18.720Z,97857.57
2019-04-25T12:55:34.096Z,97840.89
2019-04-25T12:58:47.977Z,97841.77
2019-04-25T13:02:07.032Z,97842.50
2019-04-25T13:05:20.504Z,97848.14
2019-04-25T13:08:34.260Z,97846.55
2019-04-25T13:11:47.843Z,97838.02
2019-04-25T13:15:01.524Z,97835.31
2019-04-25T13:18:14.995Z,97828.41
2019-04-25T13:21:28.489Z,97821.74
2019-04-25T13:24:42.081Z,97820.09
2019-04-25T13:28:34.209Z,97815.74
2019-04-25T13:32:06.345Z,97808.76
2019-04-25T13:35:26.630Z,97800.16
2019-04-25T13:38:40.119Z,97789.42
2019-04-25T13:41:54.418Z,97783.34
2019-04-25T13:45:09.135Z,97783.48
2019-04-25T13:48:25.543Z,97783.59
2019-04-25T13:51:38.323Z,97777.69
2019-04-25T13:54:53.673Z,97768.53
2019-04-25T13:58:07.997Z,97767.63
2019-04-25T14:01:23.028Z,97756.20
2019-04-25T14:04:37.508Z,97755.67
2019-04-25T14:07:51.025Z,97748.23
2019-04-25T14:11:05.249Z,97752.20
2019-04-25T14:14:18.923Z,97749.17
2019-04-25T14:17:44.846Z,97749.14
2019-04-25T14:21:06.462Z,97740.81
2019-04-25T14:24:22.741Z,97738.66
2019-04-25T14:27:35.333Z,97732.05
2019-04-25T14:30:49.287Z,97737.29
2019-04-25T14:34:03.243Z,97729.24
2019-04-25T14:37:18.351Z,97724.91
2019-04-25T14:40:31.954Z,97719.21
2019-04-25T14:43:46.510Z,97714.41
2019-04-25T14:47:00.380Z,97712.19
2019-04-25T14:50:14.684Z,97707.03
2019-04-25T14:53:28.521Z,97688.34
2019-04-25T14:56:53.061Z,97676.98
2019-04-25T15:00:13.455Z,97680.92
2019-04-25T15:03:27.275Z,97671.21
2019-04-25T15:06:41.355Z,97675.94
2019-04-25T15:09:55.142Z,97681.56
2019-04-25T15:13:09.238Z,97684.89
2019-04-25T15:16:23.518Z,97686.84
2019-04-25T15:19:37.569Z,97689.09
2019-04-25T15:22:51.239Z,97689.55
2019-04-25T15:26:05.376Z,97700.20
2019-04-25T15:29:19.124Z,97698.25
2019-04-25T15:32:34.807Z,97688.39
2019-04-25T15:35:57.270Z,97688.19
2019-04-25T15:39:42.778Z,97691.79
2019-04-25T15:43:07.450Z,97687.50
2019-04-25T15:46:27.322Z,97689.22
2019-04-25T15:49:41.134Z,97679.13
2019-04-25T15:52:54.748Z,97684.33
2019-04-25T15:56:08.250Z,97685.59
2019-04-25T15:59:21.751Z,97690.05
2019-04-25T16:02:35.351Z,97693.10
2019-04-25T16:05:48.816Z,97698.78
2019-04-25T16:09:03.909Z,97716.70
2019-04-25T16:12:18.137Z,97723.09
2019-04-25T16:15:31.749Z,97723.91
2019-04-25T16:18:45.345Z,97726.44
2019-04-25T16:21:59.003Z,97744.73
2019-04-25T16:25:12.733Z,97775.46
2019-04-25T16:28:27.538Z,97784.93
2019-04-25T16:31:41.701Z,97786.98
2019-04-25T16:34:55.745Z,97792.49
2019-04-25T16:38:10.988Z,97796.86
2019-04-25T16:41:24.840Z,97797.77
2019-04-25T16:44:38.936Z,97810.12
2019-04-25T16:47:52.673Z,97821.13
2019-04-25T16:51:06.747Z,97829.89
2019-04-25T16:54:20.572Z,97844.59
2019-04-25T16:57:34.852Z,97847.67
2019-04-25T17:00:58.008Z,97842.45
2019-04-25T17:04:11.801Z,97835.72
2019-04-25T17:07:25.602Z,97856.73
2019-04-25T17:10:39.592Z,97862.06
2019-04-25T17:14:11.698Z,97877.56
2019-04-25T17:17:44.981Z,97867.86
2019-04-25T17:21:06.591Z,97878.38
2019-04-25T17:24:20.439Z,97886.84
2019-04-25T17:27:35.460Z,97889.11
2019-04-25T17:30:53.542Z,97890.09
2019-04-25T17:34:15.513Z,97892.21
2019-04-25T17:37:34.367Z,97902.72
2019-04-25T17:40:48.043Z,97899.78
2019-04-25T17:44:01.820Z,97915.30
2019-04-25T17:47:15.829Z,97926.59
2019-04-25T17:50:29.523Z,97930.43
2019-04-25T17:53:43.511Z,97926.27
2019-04-25T17:56:57.336Z,97939.15
2019-04-25T18:00:20.717Z,97948.27
2019-04-25T18:03:34.978Z,97949.66
2019-04-25T18:06:48.830Z,97964.58
2019-04-25T18:10:02.665Z,97944.40
2019-04-25T18:13:16.401Z,97957.22
2019-04-25T18:16:42.664Z,97957.33
2019-04-25T18:20:01.220Z,97972.34
2019-04-25T18:23:35.275Z,97971.59
2019-04-25T18:26:56.242Z,97978.09
2019-04-25T18:30:10.152Z,97998.08
2019-04-25T18:33:27.599Z,98012.78
2019-04-25T18:36:50.681Z,98024.00
2019-04-25T18:40:13.872Z,98038.45
2019-04-25T18:43:35.576Z,98045.34
2019-04-25T18:46:50.129Z,98045.33
2019-04-25T18:50:03.995Z,98050.75
2019-04-25T18:53:35.669Z,98055.42
2019-04-25T18:56:55.601Z,98055.09
2019-04-25T19:00:34.825Z,98081.17
2019-04-25T19:03:58.708Z,98091.30
2019-04-25T19:07:22.117Z,98100.23
2019-04-25T19:10:27.574Z,98092.09
2019-04-25T19:13:41.399Z,98102.66
2019-04-25T19:16:54.865Z,98101.73
2019-04-25T19:20:08.634Z,98111.53
2019-04-25T19:23:22.195Z,98106.70
2019-04-25T19:26:35.769Z,98107.05
2019-04-25T19:29:52.083Z,98105.16
2019-04-25T19:33:07.457Z,98112.88
2019-04-25T19:36:20.492Z,98119.73
2019-04-25T19:39:35.912Z,98113.85
2019-04-25T19:42:52.700Z,98118.50
2019-04-25T19:46:06.178Z,98129.52
2019-04-25T19:49:19.652Z,98122.19
2019-04-25T19:52:33.354Z,98112.91
2019-04-25T19:55:47.590Z,98129.97
2019-04-25T19:59:03.133Z,98140.91
2019-04-25T20:02:43.092Z,98144.34
2019-04-25T20:06:06.497Z,98138.77
2019-04-25T20:09:38.168Z,98136.80
2019-04-25T20:12:53.371Z,98141.85
2019-04-25T20:16:07.356Z,98146.73
2019-04-25T20:19:20.888Z,98154.29
2019-04-25T20:22:34.417Z,98146.80
2019-04-25T20:25:48.328Z,98150.60
2019-04-25T20:29:02.001Z,98168.05
2019-04-25T20:32:15.596Z,98184.47
2019-04-25T20:35:29.065Z,98191.41
2019-04-25T20:38:42.728Z,98202.34
2019-04-25T20:41:56.207Z,98184.50
2019-04-25T20:45:10.212Z,98190.77
2019-04-25T20:48:23.676Z,98193.17
2019-04-25T20:51:37.133Z,98179.48
2019-04-25T20:54:50.738Z,98195.84
2019-04-25T20:58:04.171Z,98190.66
2019-04-25T21:01:17.724Z,98191.39
2019-04-25T21:04:43.370Z,98186.55
2019-04-25T21:07:57.541Z,98213.09
2019-04-25T21:11:11.070Z,98227.11
2019-04-25T21:17:15.429Z,98233.24
2019-04-25T21:20:28.888Z,98231.27
2019-04-25T21:23:42.622Z,98213.56
2019-04-25T21:26:56.776Z,98215.73
2019-04-25T21:30:10.967Z,98205.80
2019-04-25T21:33:24.432Z,98216.87
2019-04-25T21:36:38.660Z,98194.14
2019-04-25T21:40:02.530Z,98189.34
2019-04-25T21:43:20.889Z,98197.77
2019-04-25T21:46:34.670Z,98195.69
2019-04-25T21:49:48.331Z,98185.73
2019-04-25T21:53:03.237Z,98201.28
2019-04-25T21:56:17.261Z,98181.64
2019-04-25T21:59:30.736Z,98178.45
2019-04-25T22:02:44.427Z,98194.86
2019-04-25T22:05:58.636Z,98201.23
2019-04-25T22:09:16.789Z,98198.97
2019-04-25T22:12:30.545Z,98191.78
2019-04-25T22:15:44.055Z,98183.91
2019-04-25T22:18:57.848Z,98184.79
2019-04-25T22:22:11.781Z,98169.27
2019-04-25T22:25:25.255Z,98150.88
2019-04-25T22:28:38.903Z,98166.63
2019-04-25T22:32:05.577Z,98168.61
2019-04-25T22:35:39.213Z,98168.31
2019-04-25T22:39:08.696Z,98173.92
2019-04-25T22:42:22.530Z,98188.16
2019-04-25T22:45:35.994Z,98191.11
2019-04-25T22:48:49.447Z,98186.26
2019-04-25T22:52:03.375Z,98196.14
2019-04-25T22:55:16.838Z,98199.98
2019-04-25T22:58:30.527Z,98205.78
2019-04-25T23:02:15.984Z,98213.92
2019-04-25T23:05:32.882Z,98204.75
2019-04-25T23:08:46.647Z,98177.80
2019-04-25T23:12:00.217Z,98169.25
2019-04-25T23:15:14.304Z,98187.76
2019-04-25T23:18:27.756Z,98193.41
2019-04-25T23:21:41.234Z,98214.31
2019-04-25T23:24:59.919Z,98223.44
2019-04-25T23:28:17.182Z,98236.70
2019-04-25T23:31:31.950Z,98249.70
2019-04-25T23:34:45.618Z,98266.67
2019-04-25T23:37:59.082Z,98277.19
2019-04-25T23:41:13.581Z,98262.60
2019-04-25T23:44:28.813Z,98251.72
2019-04-25T23:47:42.593Z,98222.24
2019-04-25T23:50:56.493Z,98228.30
2019-04-25T23:54:10.840Z,98234.73
2019-04-25T23:57:24.410Z,98247.76
